Time;durP1;ratioP1;P1;durP2;ratioP2;P2;SDS_P1;SDS_P2;PMS_P1;PMS_P2;Temp;Humidity;BMP_temperature;BMP_pressure;BME280_temperature;BME280_humidity;BME280_pressure;Samples;Min_cycle;Max_cycle;Signal;HPM_P1;HPM_P2
2021/12/23 00:00:04;;;;;;;;;;;;;;;27.04;20.18;97703.72;172357;28;990;-49
2021/12/23 00:00:11;;;;;;;;;;;;;;;27.02;20.16;97705.59;172438;28;1241;-48
2021/12/23 00:00:17;;;;;;;;;;;;;;;26.99;19.89;97706.69;172294;28;897;-48
2021/12/23 00:00:22;;;;;;;;;;;;;;;27.02;19.83;97700.28;172515;28;1152;-48
2021/12/23 00:00:27;;;;;;;;;;;;;;;26.99;19.94;97704.88;172555;28;873;-48
2021/12/23 00:00:33;;;;;;;;;;;;;;;26.97;20.21;97704.19;172534;28;1161;-48
2021/12/23 00:00:38;;;;;;;;;;;;;;;26.99;19.96;97706.69;172660;28;1075;-47
2021/12/23 00:00:43;;;;;;;;;;;;;;;26.98;20.11;97705.84;172543;28;1161;-48
2021/12/23 00:00:48;;;;;;;;;;;;;;;26.93;20.15;97702.72;172593;28;715;-48
2021/12/23 00:00:57;;;;;;;;;;;;;;;26.90;20.03;97708.28;172455;28;1059;-48
2021/12/23 00:01:02;;;;;;;;;;;;;;;26.89;20.30;97705.78;172012;28;1069;-48
2021/12/23 00:01:07;;;;;;;;;;;;;;;26.93;20.31;97702.72;172189;28;955;-47
2021/12/23 00:01:12;;;;;;;;;;;;;;;26.95;20.27;97714.06;172095;28;889;-48
2021/12/23 00:01:18;;;;;;;;;;;;;;;26.92;20.21;97706.34;172496;28;955;-49
2021/12/23 00:01:23;;;;;;;;;;;;;;;26.89;19.97;97706.63;172623;28;802;-50
2021/12/23 00:01:29;;;;;;;;;;;;;;;26.90;20.34;97702.16;172442;28;873;-48
2021/12/23 00:01:34;;;;;;;;;;;;;;;26.89;20.16;97703.97;172020;28;936;-48
2021/12/23 00:01:40;;;;;;;;;;;;;;;26.90;20.02;97704.81;172030;28;798;-47
2021/12/23 00:01:45;;;;;;;;;;;;;;;26.87;20.15;97703.25;172633;28;1066;-47
2021/12/23 00:01:50;;;;;;;;;;;;;;;26.86;20.39;97706.88;172316;28;1526;-48
2021/12/23 00:01:56;;;;;;;;;;;;;;;26.87;20.30;97707.72;172524;28;978;-49
2021/12/23 00:02:01;;;;;;;;;;;;;;;26.87;20.24;97703.25;172282;28;1108;-47
2021/12/23 00:02:06;;;;;;;;;;;;;;;26.88;20.38;97704.94;172366;28;1133;-48
2021/12/23 00:02:11;;;;;;;;;;;;;;;26.88;20.32;97709.38;172491;28;1058;-48
2021/12/23 00:02:16;;;;;;;;;;;;;;;26.92;20.16;97711.63;172622;28;1169;-48
2021/12/23 00:02:22;;;;;;;;;;;;;;;26.93;19.97;97701.91;172600;28;984;-47
2021/12/23 00:02:27;;;;;;;;;;;;;;;26.92;20.10;97703.69;172460;28;1043;-48
2021/12/23 00:02:32;;;;;;;;;;;;;;;26.93;20.03;97710.66;172700;28;884;-48
2021/12/23 00:02:38;;;;;;;;;;;;;;;26.90;19.91;97710.09;172597;28;727;-48
2021/12/23 00:02:44;;;;;;;;;;;;;;;26.91;20.13;97712.63;172452;28;1046;-48
2021/12/23 00:02:49;;;;;;;;;;;;;;;26.91;19.96;97704.66;172678;28;993;-47
2021/12/23 00:02:54;;;;;;;;;;;;;;;26.97;20.28;97711.28;172015;28;1181;-48
2021/12/23 00:02:59;;;;;;;;;;;;;;;26.95;20.16;97706.13;171747;28;1105;-47
2021/12/23 00:03:04;;;;;;;;;;;;;;;26.92;20.09;97703.69;172462;28;1181;-46
2021/12/23 00:03:09;;;;;;;;;;;;;;;26.93;20.03;97705.38;172546;28;905;-47
2021/12/23 00:03:15;;;;;;;;;;;;;;;26.96;20.10;97704.31;172609;28;1220;-50
2021/12/23 00:03:20;;;;;;;;;;;;;;;26.97;20.26;97698.03;172565;28;877;-48
2021/12/23 00:03:25;;;;;;;;;;;;;;;26.96;20.03;97697.22;172598;28;814;-48
2021/12/23 00:03:30;;;;;;;;;;;;;;;26.96;20.25;97704.31;172268;28;1189;-48
2021/12/23 00:03:35;;;;;;;;;;;;;;;26.96;20.25;97706.97;172124;28;4195;-49
2021/12/23 00:03:41;;;;;;;;;;;;;;;26.98;20.11;97705.84;172575;28;1133;-48
2021/12/23 00:03:46;;;;;;;;;;;;;;;26.97;20.01;97706.81;172746;28;877;-48
2021/12/23 00:03:51;;;;;;;;;;;;;;;26.96;20.26;97705.16;172481;28;1122;-47
2021/12/23 00:03:56;;;;;;;;;;;;;;;26.97;20.20;97703.34;172590;28;787;-48
2021/12/23 00:04:01;;;;;;;;;;;;;;;26.92;19.94;97701.06;172321;28;1139;-48
2021/12/23 00:04:09;;;;;;;;;;;;;;;26.94;20.03;97704.44;172342;28;980;-47
2021/12/23 00:04:14;;;;;;;;;;;;;;;26.94;19.96;97707.09;172547;28;1219;-48
2021/12/23 00:04:19;;;;;;;;;;;;;;;26.96;20.12;97705.16;171836;28;1609;-49
2021/12/23 00:04:24;;;;;;;;;;;;;;;26.94;20.21;97701.78;172209;28;1723;-49
2021/12/23 00:04:29;;;;;;;;;;;;;;;26.91;20.10;97704.66;172522;28;1098;-49
2021/12/23 00:04:35;;;;;;;;;;;;;;;26.90;20.00;97705.63;172513;28;944;-49
2021/12/23 00:04:40;;;;;;;;;;;;;;;26.93;20.29;97708.03;172382;28;1391;-47
2021/12/23 00:04:45;;;;;;;;;;;;;;;26.94;20.10;97704.44;172213;28;1852;-48
2021/12/23 00:04:50;;;;;;;;;;;;;;;26.92;19.97;97702.88;172386;28;967;-47
2021/12/23 00:04:55;;;;;;;;;;;;;;;26.95;20.00;97698.19;172493;28;917;-47
2021/12/23 00:05:01;;;;;;;;;;;;;;;26.99;20.27;97701.41;172318;28;1125;-47
2021/12/23 00:05:07;;;;;;;;;;;;;;;27.02;19.94;97700.28;172237;28;743;-47
2021/12/23 00:05:12;;;;;;;;;;;;;;;27.00;20.13;97697.78;172539;28;1046;-47
2021/12/23 00:05:17;;;;;;;;;;;;;;;27.00;20.07;97703.91;172640;28;822;-48
2021/12/23 00:05:22;;;;;;;;;;;;;;;27.00;19.94;97703.91;172491;28;889;-48
2021/12/23 00:05:28;;;;;;;;;;;;;;;27.02;20.14;97698.53;172517;28;1208;-48
2021/12/23 00:05:33;;;;;;;;;;;;;;;26.99;20.21;97699.59;172609;28;881;-48
2021/12/23 00:05:38;;;;;;;;;;;;;;;26.98;20.14;97697.91;172526;28;1145;-47
2021/12/23 00:05:43;;;;;;;;;;;;;;;26.98;20.17;97689.97;172654;28;932;-48
2021/12/23 00:05:49;;;;;;;;;;;;;;;26.99;19.99;97694.28;172446;28;1094;-47
2021/12/23 00:05:54;;;;;;;;;;;;;;;26.99;20.20;97694.28;172609;28;854;-48
2021/12/23 00:05:59;;;;;;;;;;;;;;;27.00;20.21;97695.97;172206;28;979;-48
2021/12/23 00:06:04;;;;;;;;;;;;;;;27.02;20.23;97695.00;172416;28;790;-48
2021/12/23 00:06:09;;;;;;;;;;;;;;;26.99;19.94;97704.03;172510;28;881;-47
2021/12/23 00:06:15;;;;;;;;;;;;;;;27.00;20.17;97697.78;172510;28;1316;-47
2021/12/23 00:06:20;;;;;;;;;;;;;;;27.00;20.26;97689.84;172351;28;1027;-48
2021/12/23 00:06:25;;;;;;;;;;;;;;;27.02;19.93;97695.00;172593;28;1220;-49
2021/12/23 00:06:30;;;;;;;;;;;;;;;27.03;19.89;97696.72;172616;28;798;-48
2021/12/23 00:06:36;;;;;;;;;;;;;;;27.03;19.91;97692.25;172594;28;1146;-47
2021/12/23 00:06:41;;;;;;;;;;;;;;;27.06;19.87;97699.13;172685;28;774;-48
2021/12/23 00:06:46;;;;;;;;;;;;;;;27.06;19.69;97693.81;172201;28;992;-49
2021/12/23 00:06:51;;;;;;;;;;;;;;;27.07;20.00;97688.41;172434;28;917;-47
2021/12/23 00:06:57;;;;;;;;;;;;;;;27.08;19.80;97695.38;172558;28;897;-48
2021/12/23 00:07:02;;;;;;;;;;;;;;;27.08;20.10;97698.03;172159;28;1142;-47
2021/12/23 00:07:07;;;;;;;;;;;;;;;27.06;20.07;97691.19;172347;28;889;-49
2021/12/23 00:07:12;;;;;;;;;;;;;;;27.07;20.13;97692.84;172436;28;1169;-47
2021/12/23 00:07:17;;;;;;;;;;;;;;;27.06;20.12;97693.81;172406;28;972;-46
2021/12/23 00:07:22;;;;;;;;;;;;;;;27.06;19.78;97693.81;172483;28;1031;-46
2021/12/23 00:07:28;;;;;;;;;;;;;;;27.06;19.82;97696.47;172537;28;746;-47
2021/12/23 00:07:33;;;;;;;;;;;;;;;27.05;19.98;97690.34;172440;28;894;-47
2021/12/23 00:07:38;;;;;;;;;;;;;;;27.06;19.85;97701.78;171335;28;4283;-48
2021/12/23 00:07:44;;;;;;;;;;;;;;;27.02;19.92;97695.88;171840;28;758;-48
2021/12/23 00:07:49;;;;;;;;;;;;;;;27.05;19.85;97694.81;172370;28;1236;-48
2021/12/23 00:07:54;;;;;;;;;;;;;;;27.05;19.82;97694.81;172581;28;822;-47
2021/12/23 00:08:01;;;;;;;;;;;;;;;27.04;20.12;97688.66;171903;28;1142;-47
2021/12/23 00:08:07;;;;;;;;;;;;;;;27.08;20.06;97695.38;171803;28;1040;-49
2021/12/23 00:08:12;;;;;;;;;;;;;;;27.06;20.05;97691.19;172242;28;1166;-48
2021/12/23 00:08:17;;;;;;;;;;;;;;;27.07;20.12;97699.00;172562;28;810;-48
2021/12/23 00:08:22;;;;;;;;;;;;;;;27.06;19.79;97693.81;172000;28;1051;-48
2021/12/23 00:08:28;;;;;;;;;;;;;;;27.07;19.82;97695.50;171664;28;683;-48
2021/12/23 00:08:33;;;;;;;;;;;;;;;27.08;19.99;97699.81;171984;28;1126;-49
2021/12/23 00:08:38;;;;;;;;;;;;;;;27.08;20.05;97699.81;172600;28;880;-48
2021/12/23 00:08:44;;;;;;;;;;;;;;;27.07;19.84;97692.84;172465;28;738;-47
2021/12/23 00:08:49;;;;;;;;;;;;;;;27.04;19.79;97696.59;171971;28;1115;-48
2021/12/23 00:08:57;;;;;;;;;;;;;;;27.00;20.06;97689.84;171891;28;882;-48
2021/12/23 00:09:04;;;;;;;;;;;;;;;27.02;19.80;97695.00;171388;28;967;-47
2021/12/23 00:09:09;;;;;;;;;;;;;;;27.04;19.97;97699.25;172142;28;1157;-48
2021/12/23 00:09:14;;;;;;;;;;;;;;;27.06;20.09;97697.31;171740;28;845;-48
2021/12/23 00:09:22;;;;;;;;;;;;;;;27.00;19.92;97695.97;171967;28;967;-49
2021/12/23 00:09:50;;;;;;;;;;;;;;;27.02;20.18;97695.88;173175;28;533;-48
2021/12/23 00:10:05;;;;;;;;;;;;;;;27.07;20.05;97700.81;173030;28;1445;-47
2021/12/23 00:10:10;;;;;;;;;;;;;;;27.00;19.92;97693.31;172914;28;1081;-47
2021/12/23 00:10:15;;;;;;;;;;;;;;;26.99;20.20;97694.28;173322;28;818;-48
2021/12/23 00:10:21;;;;;;;;;;;;;;;27.01;20.16;97696.81;172697;28;1212;-47
2021/12/23 00:10:26;;;;;;;;;;;;;;;27.01;19.72;97694.16;172069;28;1767;-49
2021/12/23 00:10:31;;;;;;;;;;;;;;;27.00;20.27;97698.63;172739;28;1022;-47
2021/12/23 00:10:36;;;;;;;;;;;;;;;27.00;19.91;97695.97;173229;28;790;-48
2021/12/23 00:10:41;;;;;;;;;;;;;;;27.00;19.88;97690.69;173164;28;845;-47
2021/12/23 00:10:47;;;;;;;;;;;;;;;27.00;19.82;97695.97;171988;28;809;-47
2021/12/23 00:10:52;;;;;;;;;;;;;;;26.98;20.13;97695.25;171850;28;790;-48
2021/12/23 00:10:57;;;;;;;;;;;;;;;26.97;20.24;97696.22;173043;28;1215;-47
2021/12/23 00:11:03;;;;;;;;;;;;;;;26.92;20.04;97695.75;172625;28;1203;-48
2021/12/23 00:11:08;;;;;;;;;;;;;;;26.93;19.95;97688.66;172750;28;1149;-48
2021/12/23 00:11:13;;;;;;;;;;;;;;;26.96;19.92;97693.72;173298;28;885;-48
2021/12/23 00:11:18;;;;;;;;;;;;;;;26.98;20.24;97695.25;173039;28;1149;-49
2021/12/23 00:11:23;;;;;;;;;;;;;;;26.98;19.90;97697.91;172337;28;782;-48
2021/12/23 00:11:29;;;;;;;;;;;;;;;27.00;20.17;97703.91;172484;28;1209;-47
2021/12/23 00:11:34;;;;;;;;;;;;;;;26.99;19.94;97696.09;173259;28;802;-48
2021/12/23 00:11:39;;;;;;;;;;;;;;;27.03;19.89;97699.34;172366;28;4239;-47
2021/12/23 00:11:44;;;;;;;;;;;;;;;27.03;20.21;97692.25;172462;28;1062;-47
2021/12/23 00:11:49;;;;;;;;;;;;;;;27.00;19.88;97692.50;172475;28;920;-48
2021/12/23 00:11:55;;;;;;;;;;;;;;;27.00;19.93;97690.69;172646;28;1184;-47
2021/12/23 00:12:00;;;;;;;;;;;;;;;27.00;20.17;97690.69;172378;28;1088;-49
2021/12/23 00:12:05;;;;;;;;;;;;;;;27.02;19.88;97692.34;171900;28;1078;-47
2021/12/23 00:12:10;;;;;;;;;;;;;;;27.02;20.26;97695.88;172588;28;774;-47
2021/12/23 00:12:16;;;;;;;;;;;;;;;27.00;19.93;97688.03;172640;28;1136;-47
2021/12/23 00:12:21;;;;;;;;;;;;;;;26.97;20.02;97693.59;171698;28;782;-47
2021/12/23 00:12:26;;;;;;;;;;;;;;;26.99;20.13;97689.00;171909;28;834;-48
2021/12/23 00:12:32;;;;;;;;;;;;;;;27.01;20.30;97694.16;171856;28;986;-46
2021/12/23 00:12:41;;;;;;;;;;;;;;;27.03;19.92;97692.25;171787;28;838;-47
2021/12/23 00:12:46;;;;;;;;;;;;;;;27.07;20.03;97693.69;171341;28;834;-49
2021/12/23 00:12:51;;;;;;;;;;;;;;;27.03;20.11;97694.91;171195;28;1086;-48
2021/12/23 00:12:56;;;;;;;;;;;;;;;27.05;20.14;97692.16;172656;28;875;-47
2021/12/23 00:13:02;;;;;;;;;;;;;;;27.04;19.82;97693.13;171888;28;1120;-47
2021/12/23 00:13:07;;;;;;;;;;;;;;;27.04;20.14;97683.38;172307;28;1038;-47
2021/12/23 00:13:12;;;;;;;;;;;;;;;27.06;19.92;97691.19;172661;28;905;-47
2021/12/23 00:13:18;;;;;;;;;;;;;;;27.06;19.97;97691.19;172616;28;1236;-46
2021/12/23 00:13:23;;;;;;;;;;;;;;;27.06;19.94;97689.38;172406;28;822;-47
2021/12/23 00:13:29;;;;;;;;;;;;;;;27.02;19.99;97689.72;172831;28;1113;-47
2021/12/23 00:13:35;;;;;;;;;;;;;;;27.00;19.87;97685.38;173135;28;789;-47
2021/12/23 00:13:49;;;;;;;;;;;;;;;27.05;19.94;97694.81;172878;28;1097;-48
2021/12/23 00:14:03;;;;;;;;;;;;;;;27.02;19.96;97684.41;173099;28;1585;-48
2021/12/23 00:14:10;;;;;;;;;;;;;;;27.00;20.07;97685.38;172452;28;916;-48
2021/12/23 00:14:15;;;;;;;;;;;;;;;27.05;20.07;97685.06;172690;28;1101;-48
2021/12/23 00:14:20;;;;;;;;;;;;;;;27.05;19.79;97682.41;172980;28;1003;-48
2021/12/23 00:14:25;;;;;;;;;;;;;;;27.06;19.92;97683.25;172554;28;1146;-47
2021/12/23 00:14:32;;;;;;;;;;;;;;;27.06;19.84;97686.72;173195;28;751;-47
2021/12/23 00:14:38;;;;;;;;;;;;;;;27.03;20.03;97684.31;173280;28;829;-47
2021/12/23 00:14:45;;;;;;;;;;;;;;;27.03;20.10;97683.47;171893;28;842;-47
2021/12/23 00:14:51;;;;;;;;;;;;;;;27.01;20.12;97683.56;172273;28;1066;-48
2021/12/23 00:14:57;;;;;;;;;;;;;;;26.99;20.17;97689.00;172656;28;806;-48
2021/12/23 00:15:03;;;;;;;;;;;;;;;26.99;20.07;97685.50;172295;28;965;-48
2021/12/23 00:15:16;;;;;;;;;;;;;;;26.99;20.11;97686.34;173163;28;888;-48
2021/12/23 00:15:39;;;;;;;;;;;;;;;26.96;19.97;97683.13;172658;28;680;-47
2021/12/23 00:16:06;;;;;;;;;;;;;;;27.03;20.08;97686.97;172462;28;1183;-48
2021/12/23 00:16:18;;;;;;;;;;;;;;;27.03;19.88;97686.13;172386;28;1267;-47
2021/12/23 00:16:40;;;;;;;;;;;;;;;27.00;20.05;97681.91;171845;28;881;-48
2021/12/23 00:17:16;;;;;;;;;;;;;;;26.98;19.81;97684.69;171903;28;1408;-47
2021/12/23 00:18:03;;;;;;;;;;;;;;;26.95;20.14;97679.66;172615;28;836;-47
2021/12/23 00:18:40;;;;;;;;;;;;;;;26.97;20.01;97683.00;171120;28;846;-48
2021/12/23 00:18:47;;;;;;;;;;;;;;;26.90;20.11;97681.00;171115;28;1346;-47
2021/12/23 00:18:58;;;;;;;;;;;;;;;26.91;20.02;97680.00;171192;28;862;-48
2021/12/23 00:19:15;;;;;;;;;;;;;;;26.89;20.17;97674.84;171678;28;1026;-47
2021/12/23 00:19:48;;;;;;;;;;;;;;;26.84;20.21;97682.31;171395;28;4224;-48
2021/12/23 00:23:22;;;;;;;;;;;;;;;26.88;19.95;97680.28;171748;28;870;-47
2021/12/23 00:23:25;;;;;;;;;;;;;;;26.76;20.37;97675.97;171125;28;645;-48
2021/12/23 00:23:30;;;;;;;;;;;;;;;26.75;20.43;97669.00;171971;28;1031;-47
2021/12/23 00:23:35;;;;;;;;;;;;;;;26.74;20.36;97662.88;172613;28;790;-47
2021/12/23 00:23:43;;;;;;;;;;;;;;;26.75;20.33;97669.00;171913;28;4251;-48
2021/12/23 00:23:49;;;;;;;;;;;;;;;26.78;20.12;97668.75;172011;28;849;-48
2021/12/23 00:23:56;;;;;;;;;;;;;;;26.77;20.18;97669.72;171880;28;1134;-48
2021/12/23 00:24:02;;;;;;;;;;;;;;;26.78;20.13;97666.97;171646;28;1010;-48
2021/12/23 00:24:07;;;;;;;;;;;;;;;26.80;20.24;97666.84;172375;28;1199;-48
2021/12/23 00:24:12;;;;;;;;;;;;;;;26.82;20.10;97673.69;172475;28;787;-47
2021/12/23 00:24:17;;;;;;;;;;;;;;;26.84;20.27;97673.53;172029;28;1105;-48
2021/12/23 00:24:22;;;;;;;;;;;;;;;26.82;20.34;97668.38;171829;28;909;-47
2021/12/23 00:24:28;;;;;;;;;;;;;;;26.83;20.29;97669.22;171920;28;1006;-48
2021/12/23 00:24:33;;;;;;;;;;;;;;;26.83;20.30;97667.41;172640;28;881;-48
2021/12/23 00:24:39;;;;;;;;;;;;;;;26.83;20.00;97671.88;172492;28;1150;-48
2021/12/23 00:24:44;;;;;;;;;;;;;;;26.83;20.09;97667.41;171761;28;795;-48
2021/12/23 00:24:49;;;;;;;;;;;;;;;26.84;20.21;97673.53;171998;28;818;-47
2021/12/23 00:24:54;;;;;;;;;;;;;;;26.84;20.05;97671.72;171226;28;748;-48
2021/12/23 00:24:59;;;;;;;;;;;;;;;26.85;20.24;97664.63;171170;28;1144;-48
2021/12/23 00:25:05;;;;;;;;;;;;;;;26.84;19.99;97670.91;172216;28;1149;-47
2021/12/23 00:25:11;;;;;;;;;;;;;;;26.84;20.15;97670.91;172149;28;901;-48
2021/12/23 00:25:16;;;;;;;;;;;;;;;26.85;20.10;97669.94;172296;28;1152;-47
2021/12/23 00:25:21;;;;;;;;;;;;;;;26.83;20.23;97666.56;171832;28;1583;-48
2021/12/23 00:25:26;;;;;;;;;;;;;;;26.77;20.08;97667.06;171630;28;1469;-48
2021/12/23 00:25:31;;;;;;;;;;;;;;;26.80;20.26;97665.03;171627;28;787;-48
2021/12/23 00:25:37;;;;;;;;;;;;;;;26.83;20.02;97669.22;171955;28;1039;-47
2021/12/23 00:25:42;;;;;;;;;;;;;;;26.85;20.23;97665.47;172561;28;925;-48
2021/12/23 00:25:47;;;;;;;;;;;;;;;26.87;20.03;97671.50;171960;28;1605;-47
2021/12/23 00:25:58;;;;;;;;;;;;;;;26.90;20.23;97673.03;171801;28;1189;-47
2021/12/23 00:26:04;;;;;;;;;;;;;;;26.95;20.19;97673.53;172077;28;1109;-47
2021/12/23 00:26:09;;;;;;;;;;;;;;;26.92;20.01;97666.66;172508;28;857;-48
2021/12/23 00:26:14;;;;;;;;;;;;;;;26.92;19.88;97671.94;172225;28;1239;-48
2021/12/23 00:26:19;;;;;;;;;;;;;;;26.90;19.98;97673.88;171834;28;759;-47
2021/12/23 00:26:24;;;;;;;;;;;;;;;26.88;20.23;97672.34;171829;28;1116;-48
2021/12/23 00:26:30;;;;;;;;;;;;;;;26.91;19.98;97670.28;172678;28;837;-47
2021/12/23 00:26:35;;;;;;;;;;;;;;;26.93;19.91;97670.13;172584;28;873;-48
2021/12/23 00:26:40;;;;;;;;;;;;;;;26.96;19.89;97673.38;171853;28;1287;-47
2021/12/23 00:26:45;;;;;;;;;;;;;;;26.96;19.92;97670.75;171982;28;811;-47
2021/12/23 00:26:51;;;;;;;;;;;;;;;26.96;20.12;97665.44;171758;28;1264;-49
2021/12/23 00:26:56;;;;;;;;;;;;;;;26.96;20.08;97676.03;171912;28;922;-48
2021/12/23 00:27:01;;;;;;;;;;;;;;;26.96;20.10;97675.19;171733;28;1169;-47
2021/12/23 00:27:06;;;;;;;;;;;;;;;26.95;20.06;97679.66;171771;28;829;-47
2021/12/23 00:27:12;;;;;;;;;;;;;;;26.94;20.04;97677.97;171902;28;959;-46
2021/12/23 00:27:18;;;;;;;;;;;;;;;26.94;19.93;97664.75;172715;28;879;-46
2021/12/23 00:27:23;;;;;;;;;;;;;;;26.93;20.26;97670.97;171872;28;975;-48
2021/12/23 00:27:28;;;;;;;;;;;;;;;26.91;20.20;97672.91;172664;28;798;-48
2021/12/23 00:27:33;;;;;;;;;;;;;;;26.92;19.96;97669.28;172603;28;918;-47
2021/12/23 00:27:38;;;;;;;;;;;;;;;26.92;20.28;97669.28;171291;28;4318;-48
2021/12/23 00:27:44;;;;;;;;;;;;;;;26.92;20.03;97668.47;172002;28;739;-48
2021/12/23 00:27:49;;;;;;;;;;;;;;;26.94;19.93;97674.50;172241;28;1220;-47
2021/12/23 00:27:54;;;;;;;;;;;;;;;26.95;19.88;97673.53;172656;28;881;-47
2021/12/23 00:27:59;;;;;;;;;;;;;;;26.95;20.20;97671.72;172003;28;1111;-48
2021/12/23 00:28:04;;;;;;;;;;;;;;;26.95;20.27;97674.34;171721;28;944;-48
2021/12/23 00:28:09;;;;;;;;;;;;;;;26.97;20.22;97671.56;171907;28;1125;-47
2021/12/23 00:28:15;;;;;;;;;;;;;;;26.98;19.83;97667.97;172644;28;944;-49
2021/12/23 00:28:20;;;;;;;;;;;;;;;26.98;19.97;97675.91;172282;28;993;-47
2021/12/23 00:28:25;;;;;;;;;;;;;;;26.98;20.13;97671.44;172426;28;1134;-47
2021/12/23 00:28:31;;;;;;;;;;;;;;;26.96;20.01;97669.91;172448;28;776;-49
2021/12/23 00:28:36;;;;;;;;;;;;;;;26.97;20.17;97669.78;172818;28;1054;-49
2021/12/23 00:28:41;;;;;;;;;;;;;;;26.98;20.32;97668.81;173256;28;925;-48
2021/12/23 00:28:46;;;;;;;;;;;;;;;26.96;20.01;97668.09;172867;28;1081;-49
2021/12/23 00:28:51;;;;;;;;;;;;;;;26.97;19.82;97675.06;172322;28;810;-48
2021/12/23 00:28:57;;;;;;;;;;;;;;;26.98;20.19;97668.81;172367;28;1038;-47
2021/12/23 00:29:02;;;;;;;;;;;;;;;27.01;20.14;97673.00;172424;28;1175;-47
2021/12/23 00:29:07;;;;;;;;;;;;;;;26.99;19.75;97670.47;172410;28;976;-48
2021/12/23 00:29:12;;;;;;;;;;;;;;;26.99;20.21;97678.41;173040;28;1215;-48
2021/12/23 00:29:17;;;;;;;;;;;;;;;26.98;19.83;97673.25;172698;28;842;-47
2021/12/23 00:29:23;;;;;;;;;;;;;;;26.99;20.17;97670.47;172672;28;991;-46
2021/12/23 00:29:28;;;;;;;;;;;;;;;26.98;19.87;97673.25;173312;28;746;-48
2021/12/23 00:29:33;;;;;;;;;;;;;;;27.01;20.12;97670.34;172816;28;1093;-48
2021/12/23 00:29:38;;;;;;;;;;;;;;;27.00;19.76;97676.59;172375;28;720;-48
2021/12/23 00:29:44;;;;;;;;;;;;;;;27.00;20.11;97676.59;172528;28;1125;-48
2021/12/23 00:29:49;;;;;;;;;;;;;;;26.98;19.74;97667.97;173203;28;901;-47
2021/12/23 00:29:54;;;;;;;;;;;;;;;27.02;19.81;97676.47;173284;28;636;-48
2021/12/23 00:29:59;;;;;;;;;;;;;;;27.03;20.07;97672.88;172407;28;1168;-48
2021/12/23 00:30:05;;;;;;;;;;;;;;;27.04;20.12;97672.78;172379;28;798;-48
2021/12/23 00:30:10;;;;;;;;;;;;;;;27.04;20.13;97671.94;172799;28;986;-49
2021/12/23 00:30:15;;;;;;;;;;;;;;;27.03;19.95;97672.88;173112;28;940;-48
2021/12/23 00:30:21;;;;;;;;;;;;;;;26.99;19.96;97675.78;173126;28;975;-47
2021/12/23 00:30:26;;;;;;;;;;;;;;;26.97;20.05;97672.41;172906;28;877;-48
2021/12/23 00:30:31;;;;;;;;;;;;;;;26.98;20.07;97673.25;172426;28;1011;-48
2021/12/23 00:30:36;;;;;;;;;;;;;;;26.97;19.81;97675.06;173351;28;742;-48
2021/12/23 00:30:41;;;;;;;;;;;;;;;26.95;19.86;97679.66;173159;28;1578;-48
2021/12/23 00:30:47;;;;;;;;;;;;;;;26.96;20.18;97670.75;172507;28;1072;-46
2021/12/23 00:30:52;;;;;;;;;;;;;;;26.95;20.20;97673.53;172589;28;873;-49
2021/12/23 00:30:59;;;;;;;;;;;;;;;26.95;20.03;97668.22;172417;28;1018;-48
2021/12/23 00:31:05;;;;;;;;;;;;;;;26.96;19.99;97675.19;171804;28;854;-48
2021/12/23 00:31:10;;;;;;;;;;;;;;;26.95;20.15;97674.34;172922;28;1146;-47
2021/12/23 00:31:15;;;;;;;;;;;;;;;26.96;20.14;97673.38;172735;28;818;-48
2021/12/23 00:31:20;;;;;;;;;;;;;;;26.97;19.83;97672.41;172607;28;1125;-46
2021/12/23 00:31:26;;;;;;;;;;;;;;;26.95;20.14;97673.53;172493;28;853;-49
2021/12/23 00:31:31;;;;;;;;;;;;;;;26.93;19.99;97678.91;172677;28;1164;-47
2021/12/23 00:31:36;;;;;;;;;;;;;;;26.94;19.93;97670.03;173317;28;896;-47
2021/12/23 00:31:41;;;;;;;;;;;;;;;26.93;20.14;97670.97;172742;28;4273;-46
2021/12/23 00:31:46;;;;;;;;;;;;;;;26.92;19.78;97673.75;172242;28;984;-47
2021/12/23 00:31:52;;;;;;;;;;;;;;;26.95;20.00;97674.34;172260;28;1653;-47
2021/12/23 00:31:57;;;;;;;;;;;;;;;26.94;20.00;97677.13;172647;28;975;-47
2021/12/23 00:32:05;;;;;;;;;;;;;;;26.95;19.87;97669.06;172405;28;1133;-48
2021/12/23 00:32:11;;;;;;;;;;;;;;;26.96;19.87;97669.91;172532;28;870;-47
2021/12/23 00:32:16;;;;;;;;;;;;;;;26.98;19.89;97676.75;172538;28;794;-49
2021/12/23 00:32:21;;;;;;;;;;;;;;;26.96;20.20;97670.75;172752;28;1190;-47
2021/12/23 00:32:26;;;;;;;;;;;;;;;26.94;19.91;97667.38;172466;28;719;-48
2021/12/23 00:32:31;;;;;;;;;;;;;;;26.94;20.18;97662.09;172875;28;1188;-47
2021/12/23 00:32:37;;;;;;;;;;;;;;;26.94;20.09;97670.03;172437;28;850;-48
2021/12/23 00:32:42;;;;;;;;;;;;;;;26.93;20.14;97670.13;172564;28;1161;-48
2021/12/23 00:32:47;;;;;;;;;;;;;;;26.94;19.87;97663.91;173313;28;786;-47
2021/12/23 00:32:54;;;;;;;;;;;;;;;26.94;19.77;97672.69;173040;28;1030;-47
2021/12/23 00:33:00;;;;;;;;;;;;;;;26.94;19.95;97675.31;171690;28;1023;-47
2021/12/23 00:33:05;;;;;;;;;;;;;;;26.94;20.00;97670.03;172541;28;1063;-48
2021/12/23 00:33:10;;;;;;;;;;;;;;;26.93;19.77;97670.13;173115;28;865;-47
2021/12/23 00:33:15;;;;;;;;;;;;;;;26.88;20.30;97662.59;173270;28;809;-48
2021/12/23 00:33:22;;;;;;;;;;;;;;;26.93;20.07;97670.97;172096;28;786;-47
2021/12/23 00:33:28;;;;;;;;;;;;;;;26.91;20.17;97672.91;172253;28;1018;-48
2021/12/23 00:33:35;;;;;;;;;;;;;;;26.93;20.04;97672.78;173257;28;890;-48
2021/12/23 00:33:41;;;;;;;;;;;;;;;26.92;19.84;97671.94;172946;28;1114;-47
2021/12/23 00:33:46;;;;;;;;;;;;;;;26.92;19.88;97668.47;172505;28;786;-47
2021/12/23 00:33:52;;;;;;;;;;;;;;;26.93;19.96;97676.25;172528;28;1102;-49
2021/12/23 00:33:57;;;;;;;;;;;;;;;26.93;20.09;97670.97;173227;28;833;-48
2021/12/23 00:34:02;;;;;;;;;;;;;;;26.94;20.09;97671.84;172621;28;1108;-46
2021/12/23 00:34:10;;;;;;;;;;;;;;;26.96;20.10;97669.91;172944;28;1022;-48
2021/12/23 00:34:15;;;;;;;;;;;;;;;26.97;19.95;97674.22;172284;28;1588;-48
2021/12/23 00:34:20;;;;;;;;;;;;;;;26.95;19.82;97663.78;171957;28;1678;-48
2021/12/23 00:34:26;;;;;;;;;;;;;;;26.95;20.09;97663.78;171744;28;1537;-49
2021/12/23 00:34:31;;;;;;;;;;;;;;;26.95;20.22;97670.88;171947;28;1342;-48
2021/12/23 00:34:37;;;;;;;;;;;;;;;26.92;20.14;97665.81;171896;28;774;-48
2021/12/23 00:34:42;;;;;;;;;;;;;;;26.94;19.99;97667.38;172865;28;1476;-47
2021/12/23 00:34:47;;;;;;;;;;;;;;;26.93;20.03;97668.31;172415;28;1858;-47
2021/12/23 00:34:52;;;;;;;;;;;;;;;26.93;19.99;97664.84;172693;28;980;-47
2021/12/23 00:34:57;;;;;;;;;;;;;;;26.92;20.22;97669.28;173225;28;886;-49
2021/12/23 00:35:06;;;;;;;;;;;;;;;26.89;19.91;97664.28;172553;28;1180;-47
2021/12/23 00:35:11;;;;;;;;;;;;;;;26.90;20.09;97665.94;173155;28;829;-47
2021/12/23 00:35:16;;;;;;;;;;;;;;;26.94;19.95;97666.56;172757;28;1074;-48
2021/12/23 00:35:21;;;;;;;;;;;;;;;26.95;20.13;97669.06;172182;28;747;-47
2021/12/23 00:35:26;;;;;;;;;;;;;;;26.95;20.21;97673.53;172701;28;1154;-47
2021/12/23 00:35:32;;;;;;;;;;;;;;;26.94;19.89;97669.19;173296;28;948;-47
2021/12/23 00:35:37;;;;;;;;;;;;;;;26.96;19.71;97670.75;172975;28;1965;-47
2021/12/23 00:35:42;;;;;;;;;;;;;;;26.97;20.25;97669.78;172147;28;4276;-47
2021/12/23 00:35:47;;;;;;;;;;;;;;;26.98;19.86;97674.09;172544;28;818;-48
2021/12/23 00:35:53;;;;;;;;;;;;;;;26.96;19.87;97661.97;172361;28;1117;-48
2021/12/23 00:35:59;;;;;;;;;;;;;;;26.95;19.82;97669.06;172490;28;908;-48
2021/12/23 00:36:05;;;;;;;;;;;;;;;26.95;20.12;97674.34;172600;28;1159;-47
2021/12/23 00:36:11;;;;;;;;;;;;;;;26.95;20.18;97671.72;172785;28;873;-47
2021/12/23 00:36:16;;;;;;;;;;;;;;;26.94;20.06;97667.38;172963;28;1148;-47
2021/12/23 00:36:21;;;;;;;;;;;;;;;26.93;20.16;97668.31;172709;28;826;-49
2021/12/23 00:36:28;;;;;;;;;;;;;;;26.93;20.16;97670.97;172781;28;1121;-48
2021/12/23 00:36:33;;;;;;;;;;;;;;;26.94;19.94;97669.19;173130;28;817;-48
2021/12/23 00:36:41;;;;;;;;;;;;;;;26.94;19.84;97672.69;172647;28;1156;-48
2021/12/23 00:36:47;;;;;;;;;;;;;;;26.95;20.12;97674.34;171341;28;1767;-48
2021/12/23 00:36:54;;;;;;;;;;;;;;;26.95;20.18;97671.72;172183;28;1659;-47
2021/12/23 00:37:01;;;;;;;;;;;;;;;26.97;20.14;97667.13;171530;28;850;-48
2021/12/23 00:37:09;;;;;;;;;;;;;;;26.99;19.92;97672.28;171110;28;933;-47
2021/12/23 00:37:16;;;;;;;;;;;;;;;26.98;20.08;97673.25;172285;28;1181;-48
2021/12/23 00:37:22;;;;;;;;;;;;;;;26.97;19.86;97675.06;172015;28;877;-48
2021/12/23 00:37:35;;;;;;;;;;;;;;;26.95;20.13;97673.53;172338;28;1067;-48